TimeCDT,TemperatureF,Dew PointF,Humidity,Sea Level PressureIn,VisibilityMPH,Wind Direction,Wind SpeedMPH,Gust SpeedMPH,PrecipitationIn,Events,Conditions,WindDirDegrees,DateUTC
12:53 AM,32.0,30.0,92,30.30,10.0,Calm,Calm,-,N/A,,Overcast,0,2012-10-29 05:53:00
1:53 AM,32.0,30.0,92,30.30,10.0,Calm,Calm,-,N/A,,Mostly Cloudy,0,2012-10-29 06:53:00
2:53 AM,30.9,28.9,92,30.29,10.0,Calm,Calm,-,N/A,,Mostly Cloudy,0,2012-10-29 07:53:00
3:53 AM,32.0,30.9,96,30.27,10.0,Calm,Calm,-,N/A,,Overcast,0,2012-10-29 08:53:00
4:53 AM,30.0,28.9,96,30.29,10.0,Calm,Calm,-,N/A,,Clear,0,2012-10-29 09:53:00
5:53 AM,28.9,28.0,96,30.30,9.0,Calm,Calm,-,N/A,,Clear,0,2012-10-29 10:53:00
6:53 AM,28.0,27.0,96,30.31,9.0,Calm,Calm,-,N/A,,Clear,0,2012-10-29 11:53:00
7:53 AM,28.0,27.0,96,30.31,6.0,Calm,Calm,-,N/A,,Clear,0,2012-10-29 12:53:00
8:53 AM,34.0,32.0,92,30.34,10.0,Calm,Calm,-,N/A,,Clear,0,2012-10-29 13:53:00
9:53 AM,41.0,35.1,79,30.34,10.0,SSE,3.5,-,N/A,,Overcast,160,2012-10-29 14:53:00
10:53 AM,48.9,34.0,56,30.31,10.0,SSE,9.2,-,N/A,,Partly Cloudy,150,2012-10-29 15:53:00
11:53 AM,55.9,33.1,42,30.30,10.0,SSE,8.1,-,N/A,,Clear,150,2012-10-29 16:53:00
12:53 PM,59.0,30.9,35,30.27,10.0,South,8.1,-,N/A,,Clear,170,2012-10-29 17:53:00
1:53 PM,62.1,30.0,30,30.22,10.0,SE,10.4,-,N/A,,Clear,130,2012-10-29 18:53:00
2:53 PM,63.0,30.0,29,30.18,10.0,SSE,6.9,-,N/A,,Clear,150,2012-10-29 19:53:00
3:53 PM,64.0,28.9,27,30.16,10.0,Variable,5.8,-,N/A,,Clear,0,2012-10-29 20:53:00
5:53 PM,57.9,30.0,35,30.13,10.0,SSE,6.9,-,N/A,,Clear,150,2012-10-29 22:53:00
6:53 PM,51.1,32.0,48,30.13,10.0,Calm,Calm,-,N/A,,Clear,0,2012-10-29 23:53:00
7:53 PM,43.0,33.1,68,30.14,10.0,Calm,Calm,-,N/A,,Clear,0,2012-10-30 00:53:00
8:53 PM,39.9,33.1,77,30.13,10.0,Calm,Calm,-,N/A,,Clear,0,2012-10-30 01:53:00
9:53 PM,37.9,32.0,79,30.13,10.0,Calm,Calm,-,N/A,,Clear,0,2012-10-30 02:53:00
10:53 PM,37.0,32.0,82,30.12,10.0,Calm,Calm,-,N/A,,Clear,0,2012-10-30 03:53:00
11:53 PM,35.1,32.0,89,30.10,10.0,Calm,Calm,-,N/A,,Clear,0,2012-10-30 04:53:00